Terminal Aerodrome Forecast
Issued by NWS Tuscon, AZ

Home | Current Version | Previous Version | Text Only | Print | Product List | Glossary On
Versions: 1 2 3 4 5 6 7 8 9 10 11 12 13 14 15 16 17
000
FTUS45 KTWC 281136
TAFTUS
TAF
KTUS 281136Z 2812/2912 14007KT P6SM SCT090 SCT120 BKN200
     FM281700 VRB04KT P6SM FEW080 SCT250
     FM282200 32007KT P6SM SCT080 SCT250
     FM290200 35006KT P6SM SCT090 BKN250
     FM290600 15005KT P6SM FEW120 SCT250=

USA.gov is the U.S. government's official web portal to all federal, state and local government web resources and services.